N6313 -KSAN
Flight info
| Callsign | N6313 |
|---|---|
| Flight time | N/A |
| Altitude | VFR |
| Route | |
| Aircraft | SR22/L-VGD/C |
Departure
| Time | N/A |
|---|---|
| Airport | - |
Arrival
| Time | 2026-05-04 06:40 |
|---|---|
| Airport | San Diego International Airport (KSAN) |
| Time | Latitude | Longitude | Altitude | Speed | Heading |
|---|---|---|---|---|---|
| 2026-05-04 06:40 | 32.73376 | -117.17981 | 19 ft | 0 kts | 290° |
| 2026-05-04 06:42 | 32.73371 | -117.17986 | 19 ft | 1 kts | 148° |
| 2026-05-04 06:42 | 32.73360 | -117.17960 | 19 ft | 6 kts | 136° |
| 2026-05-04 06:42 | 32.73321 | -117.17961 | 18 ft | 6 kts | 198° |
| 2026-05-04 06:44 | 32.73115 | -117.17569 | 15 ft | 13 kts | 143° |
| 2026-05-04 06:44 | 32.73047 | -117.17529 | 17 ft | 9 kts | 180° |
| 2026-05-04 06:44 | 32.73018 | -117.17575 | 16 ft | 9 kts | 282° |
| 2026-05-04 06:45 | 32.73067 | -117.17783 | 13 ft | 53 kts | 285° |
| 2026-05-04 06:45 | 32.73229 | -117.18470 | 131 ft | 112 kts | 285° |
| 2026-05-04 06:45 | 32.73478 | -117.19387 | 581 ft | 119 kts | 286° |
| 2026-05-04 06:45 | 32.73726 | -117.20371 | 957 ft | 128 kts | 287° |
| 2026-05-04 06:46 | 32.74219 | -117.21116 | 1187 ft | 119 kts | 344° |
| 2026-05-04 06:46 | 32.74987 | -117.20849 | 1208 ft | 115 kts | 40° |
| 2026-05-04 06:46 | 32.75136 | -117.19980 | 1178 ft | 112 kts | 107° |
| 2026-05-04 06:46 | 32.74888 | -117.19075 | 1089 ft | 117 kts | 112° |
| 2026-05-04 06:48 | 32.73037 | -117.17615 | 110 ft | 82 kts | 281° |
| 2026-05-04 06:48 | 32.73160 | -117.18155 | 22 ft | 54 kts | 281° |
| 2026-05-04 06:49 | 32.73258 | -117.18568 | 17 ft | 68 kts | 285° |
| 2026-05-04 06:50 | 32.74579 | -117.18151 | 1044 ft | 121 kts | 112° |
| 2026-05-04 06:51 | 32.74273 | -117.17316 | 952 ft | 100 kts | 118° |
| 2026-05-04 06:51 | 32.73918 | -117.16671 | 818 ft | 92 kts | 157° |
| 2026-05-04 06:51 | 32.73298 | -117.16721 | 627 ft | 93 kts | 208° |
| 2026-05-04 06:51 | 32.72994 | -117.17337 | 350 ft | 95 kts | 270° |
| 2026-05-04 06:52 | 32.73137 | -117.18071 | 42 ft | 80 kts | 282° |
| 2026-05-04 06:52 | 32.73260 | -117.18592 | 17 ft | 54 kts | 286° |
| 2026-05-04 06:52 | 32.73384 | -117.19091 | 20 ft | 88 kts | 285° |
| 2026-05-04 06:52 | 32.73608 | -117.19994 | 311 ft | 118 kts | 286° |
| 2026-05-04 06:53 | 32.73902 | -117.20815 | 688 ft | 107 kts | 328° |
| 2026-05-04 06:53 | 32.74645 | -117.20671 | 864 ft | 117 kts | 18° |
| 2026-05-04 06:53 | 32.75146 | -117.20001 | 1089 ft | 119 kts | 95° |
| 2026-05-04 06:53 | 32.74850 | -117.19053 | 1081 ft | 123 kts | 109° |
| 2026-05-04 06:54 | 32.74555 | -117.18126 | 1084 ft | 114 kts | 114° |
| 2026-05-04 06:54 | 32.74264 | -117.17343 | 954 ft | 103 kts | 119° |
| 2026-05-04 06:54 | 32.73982 | -117.16603 | 818 ft | 96 kts | 127° |
| 2026-05-04 06:54 | 32.73440 | -117.16370 | 636 ft | 87 kts | 203° |
| 2026-05-04 06:55 | 32.73027 | -117.16823 | 410 ft | 83 kts | 250° |
| 2026-05-04 06:55 | 32.73010 | -117.17506 | 178 ft | 79 kts | 278° |
| 2026-05-04 06:55 | 32.73142 | -117.18081 | 28 ft | 65 kts | 283° |
| 2026-05-04 06:55 | 32.73245 | -117.18512 | 15 ft | 47 kts | 286° |
| 2026-05-04 06:56 | 32.73383 | -117.19066 | 64 ft | 98 kts | 286° |
| 2026-05-04 06:57 | 32.74280 | -117.17087 | 842 ft | 97 kts | 123° |
| 2026-05-04 06:58 | 32.73920 | -117.16436 | 740 ft | 93 kts | 142° |
| 2026-05-04 06:58 | 32.73367 | -117.16314 | 588 ft | 82 kts | 212° |
| 2026-05-04 06:58 | 32.72944 | -117.16753 | 414 ft | 80 kts | 254° |
| 2026-05-04 06:58 | 32.72984 | -117.17420 | 192 ft | 81 kts | 282° |
| 2026-05-04 06:59 | 32.73129 | -117.18035 | 37 ft | 72 kts | 284° |
| 2026-05-04 06:59 | 32.73244 | -117.18511 | 16 ft | 48 kts | 285° |
| 2026-05-04 06:59 | 32.73312 | -117.18768 | 28 ft | 13 kts | 303° |
| 2026-05-04 06:59 | 32.73366 | -117.18820 | 17 ft | 10 kts | 6° |
| 2026-05-04 07:01 | 32.73297 | -117.18252 | 22 ft | 13 kts | 105° |
| 2026-05-04 07:01 | 32.73275 | -117.18159 | 22 ft | 12 kts | 106° |
| 2026-05-04 07:02 | 32.73250 | -117.18053 | 22 ft | 13 kts | 105° |
| 2026-05-04 07:02 | 32.73265 | -117.17982 | 23 ft | 8 kts | 24° |
| 2026-05-04 07:02 | 32.73321 | -117.17962 | 25 ft | 9 kts | 16° |
| 2026-05-04 07:02 | 32.73370 | -117.17946 | 26 ft | 7 kts | 18° |
| 2026-05-04 07:03 | 32.73393 | -117.17891 | 25 ft | 8 kts | 50° |
| 2026-05-04 07:03 | 32.73403 | -117.17876 | 25 ft | 0 kts | 58° |
| 2026-05-04 07:03 | 32.73404 | -117.17875 | 25 ft | 0 kts | 58° |